createdAt,value
2023-04-27T00:01:42.239Z,6.29
2023-04-27T00:04:09.638Z,6.24
2023-04-27T00:06:36.887Z,6.24
2023-04-27T00:09:04.653Z,6.19
2023-04-27T00:11:31.942Z,6.17
2023-04-27T00:13:58.988Z,6.08
2023-04-27T00:16:26.323Z,6.04
2023-04-27T00:18:53.303Z,6.01
2023-04-27T00:21:20.376Z,6.04
2023-04-27T00:23:47.513Z,6.00
2023-04-27T00:26:14.575Z,5.98
2023-04-27T00:28:44.227Z,5.93
2023-04-27T00:31:11.594Z,5.91
2023-04-27T00:33:38.693Z,5.90
2023-04-27T00:36:06.189Z,5.88
2023-04-27T00:38:33.195Z,5.88
2023-04-27T00:41:07.008Z,5.87
2023-04-27T00:43:41.768Z,5.84
2023-04-27T00:46:09.601Z,5.79
2023-04-27T00:48:37.498Z,5.78
2023-04-27T00:51:05.341Z,5.77
2023-04-27T00:53:34.462Z,5.71
2023-04-27T00:56:01.552Z,5.71
2023-04-27T00:58:29.287Z,5.71
2023-04-27T01:00:56.590Z,5.70
2023-04-27T01:03:23.960Z,5.70
2023-04-27T01:05:51.184Z,5.69
2023-04-27T01:08:18.247Z,5.58
2023-04-27T01:10:45.338Z,5.57
2023-04-27T01:13:12.573Z,5.50
2023-04-27T01:15:39.566Z,5.51
2023-04-27T01:18:10.033Z,5.46
2023-04-27T01:20:38.901Z,5.45
2023-04-27T01:23:06.474Z,5.42
2023-04-27T01:25:33.667Z,5.40
2023-04-27T01:28:03.042Z,5.41
2023-04-27T01:30:30.532Z,5.39
2023-04-27T01:32:59.344Z,5.41
2023-04-27T01:35:28.246Z,5.33
2023-04-27T01:38:00.432Z,5.31
2023-04-27T01:40:27.593Z,5.30
2023-04-27T01:42:54.630Z,5.30
2023-04-27T01:45:21.860Z,5.31
2023-04-27T01:47:52.102Z,5.27
2023-04-27T01:50:20.964Z,5.31
2023-04-27T01:52:47.997Z,5.27
2023-04-27T01:55:15.174Z,5.27
2023-04-27T01:57:43.064Z,5.26
2023-04-27T02:00:10.878Z,5.26
2023-04-27T02:02:53.756Z,5.23
2023-04-27T02:05:22.058Z,5.22
2023-04-27T02:07:49.708Z,5.17
2023-04-27T02:10:16.913Z,5.17
2023-04-27T02:12:45.229Z,5.20
2023-04-27T02:15:12.388Z,5.20
2023-04-27T02:17:40.112Z,5.18
2023-04-27T02:20:07.866Z,5.13
2023-04-27T02:22:35.841Z,5.13
2023-04-27T02:25:03.108Z,5.10
2023-04-27T02:27:30.110Z,5.09
2023-04-27T02:29:58.317Z,5.08
2023-04-27T02:32:25.882Z,5.08
2023-04-27T02:34:52.999Z,5.07
2023-04-27T02:37:19.957Z,5.01
2023-04-27T02:39:47.486Z,5.00
2023-04-27T02:42:14.862Z,5.05
2023-04-27T02:44:43.105Z,5.05
2023-04-27T02:47:11.114Z,5.00
2023-04-27T02:49:38.487Z,4.99
2023-04-27T02:52:05.952Z,4.99
2023-04-27T02:54:33.098Z,4.98
2023-04-27T02:57:00.158Z,4.97
2023-04-27T02:59:27.349Z,4.97
2023-04-27T03:01:54.602Z,4.94
2023-04-27T03:04:21.706Z,4.95
2023-04-27T03:06:49.154Z,4.92
2023-04-27T03:09:16.472Z,4.96
2023-04-27T03:11:43.964Z,4.99
2023-04-27T03:14:12.813Z,5.00
2023-04-27T03:16:40.405Z,4.96
2023-04-27T03:19:07.635Z,5.03
2023-04-27T03:21:34.755Z,5.03
2023-04-27T03:24:01.937Z,5.01
2023-04-27T03:26:28.929Z,5.00
2023-04-27T03:28:57.910Z,5.01
2023-04-27T03:31:28.784Z,4.98
2023-04-27T03:33:55.802Z,4.95
2023-04-27T03:36:22.881Z,4.94
2023-04-27T03:38:50.016Z,4.92
2023-04-27T03:41:17.196Z,4.92
2023-04-27T03:43:44.182Z,4.92
2023-04-27T03:46:11.382Z,4.94
2023-04-27T03:48:38.660Z,4.96
2023-04-27T03:51:06.911Z,4.98
2023-04-27T03:53:34.446Z,4.97
2023-04-27T03:56:02.496Z,4.95
2023-04-27T03:58:29.662Z,4.96
2023-04-27T04:01:19.018Z,5.01
2023-04-27T04:03:48.435Z,5.06
2023-04-27T04:06:15.581Z,5.07
2023-04-27T04:08:42.698Z,5.07
2023-04-27T04:11:10.254Z,5.04
2023-04-27T04:13:37.843Z,5.04
2023-04-27T04:16:06.905Z,5.04
2023-04-27T04:18:35.035Z,5.08
2023-04-27T04:21:02.383Z,5.11
2023-04-27T04:23:29.891Z,5.12
2023-04-27T04:25:57.945Z,5.18
2023-04-27T04:28:28.921Z,5.18
2023-04-27T04:30:56.972Z,5.20
2023-04-27T04:33:24.436Z,5.28
2023-04-27T04:35:51.883Z,5.37
2023-04-27T04:38:19.337Z,5.42
2023-04-27T04:40:46.551Z,5.45
2023-04-27T04:43:13.719Z,5.42
2023-04-27T04:45:42.817Z,5.42
2023-04-27T04:48:14.457Z,5.43
2023-04-27T04:50:42.215Z,5.32
2023-04-27T04:54:18.841Z,5.29
2023-04-27T04:56:48.158Z,5.33
2023-04-27T04:59:15.347Z,5.30
2023-04-27T05:01:42.638Z,5.32
2023-04-27T05:04:09.777Z,5.37
2023-04-27T05:06:36.909Z,5.34
2023-04-27T05:09:06.584Z,5.39
2023-04-27T05:11:33.622Z,5.45
2023-04-27T05:14:00.689Z,5.44
2023-04-27T05:16:27.954Z,5.49
2023-04-27T05:18:55.003Z,5.57
2023-04-27T05:21:22.359Z,5.66
2023-04-27T05:23:49.641Z,5.82
2023-04-27T05:26:18.261Z,6.13
2023-04-27T05:28:47.128Z,6.25
2023-04-27T05:31:14.215Z,6.12
2023-04-27T05:33:41.409Z,6.23
2023-04-27T05:36:09.380Z,6.18
2023-04-27T05:38:40.278Z,6.47
2023-04-27T05:41:07.686Z,6.84
2023-04-27T05:43:35.362Z,7.08
2023-04-27T05:46:02.355Z,6.68
2023-04-27T05:48:29.433Z,6.63
2023-04-27T05:51:03.577Z,6.63
2023-04-27T05:53:31.035Z,6.72
2023-04-27T05:55:59.412Z,6.70
2023-04-27T05:58:26.655Z,6.80
2023-04-27T06:00:54.524Z,6.68
2023-04-27T06:03:21.904Z,6.70
2023-04-27T06:05:58.854Z,6.60
2023-04-27T06:08:27.140Z,6.50
2023-04-27T06:10:54.842Z,6.55
2023-04-27T06:13:21.900Z,6.49
2023-04-27T06:15:49.087Z,6.45
2023-04-27T06:18:16.362Z,6.43
2023-04-27T06:20:43.346Z,6.42
2023-04-27T06:23:10.416Z,6.40
2023-04-27T06:25:39.031Z,6.43
2023-04-27T06:28:06.747Z,6.52
2023-04-27T06:30:33.749Z,6.56
2023-04-27T06:33:00.808Z,6.59
2023-04-27T06:35:27.870Z,6.61
2023-04-27T06:37:58.958Z,6.68
2023-04-27T06:40:27.202Z,6.74
2023-04-27T06:42:54.283Z,6.78
2023-04-27T06:45:21.287Z,6.84
2023-04-27T06:47:48.388Z,6.93
2023-04-27T06:50:16.524Z,7.00
2023-04-27T06:52:43.852Z,7.06
2023-04-27T06:55:11.060Z,7.09
2023-04-27T06:57:38.182Z,7.13
2023-04-27T07:00:05.871Z,7.11
2023-04-27T07:02:33.066Z,7.16
2023-04-27T07:05:00.556Z,7.26
2023-04-27T07:07:27.693Z,7.47
2023-04-27T07:09:54.753Z,7.53
2023-04-27T07:12:21.842Z,7.49
2023-04-27T07:14:50.955Z,7.64
2023-04-27T07:17:18.096Z,7.49
2023-04-27T07:19:45.133Z,7.62
2023-04-27T07:22:12.265Z,7.76
2023-04-27T07:24:39.363Z,7.84
2023-04-27T07:27:06.398Z,8.06
2023-04-27T07:29:34.302Z,7.90
2023-04-27T07:32:01.614Z,8.15
2023-04-27T07:34:35.028Z,7.85
2023-04-27T07:37:09.248Z,7.94
2023-04-27T07:39:36.959Z,7.99
2023-04-27T07:42:04.363Z,8.04
2023-04-27T07:44:31.495Z,7.89
2023-04-27T07:46:58.695Z,7.96
2023-04-27T07:49:26.505Z,8.10
2023-04-27T07:51:53.601Z,8.11
2023-04-27T07:54:20.727Z,8.01
2023-04-27T07:56:47.838Z,7.84
2023-04-27T07:59:15.809Z,7.81
2023-04-27T08:01:43.052Z,7.87
2023-04-27T08:04:10.474Z,7.91
2023-04-27T08:06:38.338Z,7.89
2023-04-27T08:09:06.138Z,7.86
2023-04-27T08:11:33.115Z,7.92
2023-04-27T08:14:00.096Z,8.02
2023-04-27T08:16:27.799Z,8.22
2023-04-27T08:18:54.948Z,8.34
2023-04-27T08:21:21.916Z,8.22
2023-04-27T08:23:48.978Z,8.30
2023-04-27T08:26:16.755Z,8.24
2023-04-27T08:28:43.766Z,8.30
2023-04-27T08:31:10.962Z,8.46
2023-04-27T08:33:38.035Z,8.47
2023-04-27T08:36:05.470Z,8.56
2023-04-27T08:38:34.834Z,8.67
2023-04-27T08:41:14.180Z,8.73
2023-04-27T08:43:49.994Z,8.83
2023-04-27T08:46:21.452Z,8.97
2023-04-27T08:48:52.113Z,8.79
2023-04-27T08:51:20.190Z,8.65
2023-04-27T08:53:52.826Z,8.91
2023-04-27T08:56:23.455Z,9.04
2023-04-27T08:58:50.519Z,9.12
2023-04-27T09:01:18.021Z,8.91
2023-04-27T09:03:49.290Z,9.08
2023-04-27T09:06:16.868Z,9.25
2023-04-27T09:08:45.797Z,9.21
2023-04-27T09:11:14.346Z,9.24
2023-04-27T09:13:45.220Z,9.59
2023-04-27T09:16:16.363Z,9.32
2023-04-27T09:18:44.740Z,9.52
2023-04-27T09:21:21.894Z,9.22
2023-04-27T09:23:48.977Z,9.46
2023-04-27T09:26:22.004Z,9.39
2023-04-27T09:28:51.520Z,9.30
2023-04-27T09:31:18.807Z,9.38
2023-04-27T09:33:46.348Z,9.34
2023-04-27T09:36:14.108Z,9.38
2023-04-27T09:38:41.228Z,9.52
2023-04-27T09:41:09.010Z,9.92
2023-04-27T09:43:36.968Z,9.90
2023-04-27T10:17:16.317Z,11.10
2023-04-27T10:19:57.317Z,10.80
2023-04-27T10:22:37.791Z,11.03
2023-04-27T10:25:19.758Z,11.34
2023-04-27T10:27:52.592Z,11.20
2023-04-27T10:30:21.547Z,11.44
2023-04-27T10:32:59.611Z,11.85
2023-04-27T10:35:41.664Z,11.58
2023-04-27T10:38:09.740Z,11.40
2023-04-27T10:40:38.444Z,11.54
2023-04-27T10:43:10.080Z,11.37
2023-04-27T10:45:37.279Z,11.62
2023-04-27T10:48:05.389Z,11.63
2023-04-27T10:50:32.513Z,11.87
2023-04-27T10:53:07.314Z,11.47
2023-04-27T10:55:35.856Z,11.53
2023-04-27T10:58:04.408Z,11.61
2023-04-27T11:00:34.248Z,11.58
2023-04-27T11:03:13.218Z,11.67
2023-04-27T11:05:40.788Z,11.78
2023-04-27T11:08:20.616Z,11.60
2023-04-27T11:10:50.387Z,11.77
2023-04-27T11:13:22.870Z,11.67
2023-04-27T11:15:55.369Z,11.87
2023-04-27T11:18:24.649Z,12.15
2023-04-27T11:20:53.743Z,12.30
2023-04-27T11:23:29.021Z,12.09
2023-04-27T11:25:56.952Z,12.06
2023-04-27T11:28:24.653Z,12.13
2023-04-27T11:31:00.872Z,12.31
2023-04-27T11:33:28.715Z,12.04
2023-04-27T11:35:56.822Z,12.15
2023-04-27T11:38:24.327Z,11.91
2023-04-27T11:41:06.341Z,12.55
2023-04-27T11:43:34.352Z,12.52
2023-04-27T11:46:06.127Z,12.56
2023-04-27T11:48:33.197Z,12.64
2023-04-27T11:51:01.573Z,12.77
2023-04-27T11:53:36.842Z,12.37
2023-04-27T11:56:05.737Z,12.16
2023-04-27T11:58:37.393Z,12.44
2023-04-27T12:01:05.619Z,11.91
2023-04-27T12:03:32.968Z,12.03
2023-04-27T12:06:16.113Z,12.03
2023-04-27T12:08:47.168Z,12.12
2023-04-27T12:11:14.247Z,11.79
2023-04-27T12:13:41.279Z,12.28
2023-04-27T12:16:08.338Z,12.04
2023-04-27T12:18:35.395Z,12.37
2023-04-27T12:21:03.423Z,12.08
2023-04-27T12:23:31.112Z,12.59
2023-04-27T12:25:58.080Z,12.17
2023-04-27T12:28:25.066Z,11.80
2023-04-27T12:30:52.086Z,11.38
2023-04-27T12:33:19.270Z,11.45
2023-04-27T12:35:46.345Z,11.28
2023-04-27T12:38:13.364Z,11.60
2023-04-27T12:40:40.547Z,11.79
2023-04-27T12:43:08.999Z,11.59
2023-04-27T12:45:35.979Z,11.46
2023-04-27T12:48:04.153Z,11.18
2023-04-27T12:50:32.504Z,11.40
2023-04-27T12:53:00.380Z,11.44
2023-04-27T12:55:33.785Z,11.34
2023-04-27T12:58:02.389Z,11.53
2023-04-27T13:00:29.956Z,11.83
2023-04-27T13:02:57.638Z,11.92
2023-04-27T13:05:24.778Z,12.50
2023-04-27T13:07:52.447Z,11.76
2023-04-27T13:10:19.520Z,11.60
2023-04-27T13:12:46.654Z,12.07
2023-04-27T13:15:13.704Z,11.94
2023-04-27T13:17:43.507Z,11.80
2023-04-27T13:20:11.856Z,11.48
2023-04-27T13:22:40.954Z,11.46
2023-04-27T13:25:09.554Z,11.63
2023-04-27T13:27:36.786Z,11.76
2023-04-27T13:30:05.352Z,11.78
2023-04-27T13:32:32.661Z,11.91
2023-04-27T13:34:59.778Z,11.61
2023-04-27T13:37:27.208Z,11.52
2023-04-27T13:39:54.178Z,11.26
2023-04-27T13:42:21.662Z,11.15
2023-04-27T13:44:48.647Z,11.27
2023-04-27T13:47:15.651Z,11.70
2023-04-27T13:49:42.865Z,11.76
2023-04-27T13:52:09.971Z,11.63
2023-04-27T13:54:37.353Z,11.48
2023-04-27T13:57:04.419Z,11.15
2023-04-27T13:59:31.471Z,11.03
2023-04-27T14:01:58.533Z,11.07
2023-04-27T14:04:25.778Z,11.00
2023-04-27T14:06:52.934Z,11.18
2023-04-27T14:09:20.511Z,11.49
2023-04-27T14:11:56.451Z,11.48
2023-04-27T14:14:24.425Z,11.48
2023-04-27T14:17:23.809Z,11.70
2023-04-27T14:19:50.855Z,11.45
2023-04-27T14:22:18.103Z,11.09
2023-04-27T14:24:45.045Z,11.18
2023-04-27T14:27:12.066Z,11.14
2023-04-27T14:29:39.040Z,11.14
2023-04-27T14:32:06.460Z,11.07
2023-04-27T14:34:33.530Z,11.17
2023-04-27T14:37:00.670Z,11.01
2023-04-27T14:39:28.255Z,10.86
2023-04-27T14:41:55.246Z,10.82
2023-04-27T14:44:22.391Z,10.75
2023-04-27T14:46:49.382Z,10.84
2023-04-27T14:49:16.649Z,10.88
2023-04-27T14:51:43.873Z,10.81
2023-04-27T14:54:11.424Z,10.84
2023-04-27T14:56:38.383Z,10.94
2023-04-27T14:59:05.788Z,10.77
2023-04-27T15:01:32.795Z,10.73
2023-04-27T15:03:59.994Z,10.82
2023-04-27T15:06:30.486Z,10.64
2023-04-27T15:08:57.805Z,10.49
2023-04-27T15:11:24.824Z,10.44
2023-04-27T15:13:51.821Z,10.52
2023-04-27T15:16:20.184Z,10.46
2023-04-27T15:18:47.332Z,10.37
2023-04-27T15:21:14.344Z,10.27
2023-04-27T15:23:41.431Z,10.12
2023-04-27T15:26:08.510Z,9.94
2023-04-27T15:28:36.451Z,9.98
2023-04-27T15:31:03.744Z,9.93
2023-04-27T15:33:30.794Z,9.93
2023-04-27T15:35:59.167Z,9.91
2023-04-27T15:38:26.796Z,9.86
2023-04-27T15:40:53.807Z,9.81
2023-04-27T15:43:21.881Z,9.89
2023-04-27T15:45:49.213Z,9.85
2023-04-27T15:48:16.603Z,9.81
2023-04-27T15:50:45.334Z,9.78
2023-04-27T15:53:12.984Z,9.76
2023-04-27T15:55:40.543Z,9.74
2023-04-27T15:58:07.564Z,9.73
2023-04-27T16:00:35.175Z,9.75
2023-04-27T16:03:02.312Z,9.78
2023-04-27T16:05:29.591Z,9.72
2023-04-27T16:07:56.640Z,9.67
2023-04-27T16:10:23.726Z,9.64
2023-04-27T16:12:50.733Z,9.57
2023-04-27T16:15:17.887Z,9.53
2023-04-27T16:17:45.090Z,9.53
2023-04-27T16:20:12.270Z,9.53
2023-04-27T16:22:39.332Z,9.50
2023-04-27T16:25:12.512Z,9.44
2023-04-27T16:27:40.065Z,9.41
2023-04-27T16:30:07.726Z,9.31
2023-04-27T16:32:35.739Z,9.27
2023-04-27T16:35:03.377Z,9.23
2023-04-27T16:37:30.597Z,9.13
2023-04-27T16:40:01.583Z,9.10
2023-04-27T16:42:28.920Z,9.01
2023-04-27T16:44:56.609Z,8.86
2023-04-27T16:47:23.636Z,8.73
2023-04-27T16:49:51.359Z,8.67
2023-04-27T16:52:18.743Z,8.65
2023-04-27T16:54:46.175Z,8.61
2023-04-27T16:57:13.426Z,8.52
2023-04-27T16:59:40.634Z,8.43
2023-04-27T17:02:22.874Z,8.35
2023-04-27T17:04:51.881Z,8.26
2023-04-27T17:07:19.044Z,8.15
2023-04-27T17:09:46.080Z,8.11
2023-04-27T17:12:14.970Z,8.07
2023-04-27T17:14:42.825Z,8.04
2023-04-27T17:17:10.982Z,8.02
2023-04-27T17:19:39.189Z,7.99
2023-04-27T17:22:08.189Z,7.94
2023-04-27T17:24:35.197Z,7.89
2023-04-27T17:27:04.247Z,7.91
2023-04-27T17:29:31.829Z,7.84
2023-04-27T17:31:58.907Z,7.80
2023-04-27T17:34:26.003Z,7.68
2023-04-27T17:36:53.116Z,7.67
2023-04-27T17:39:22.696Z,7.66
2023-04-27T17:41:49.751Z,7.56
2023-04-27T17:44:17.308Z,7.51
2023-04-27T17:46:49.254Z,7.48
2023-04-27T17:49:18.407Z,7.40
2023-04-27T17:51:46.478Z,7.39
2023-04-27T17:54:13.503Z,7.34
2023-04-27T17:56:40.531Z,7.36
2023-04-27T17:59:08.565Z,7.30
2023-04-27T18:01:35.839Z,7.18
2023-04-27T18:04:04.514Z,7.14
2023-04-27T18:06:32.203Z,7.20
2023-04-27T18:08:59.224Z,7.23
2023-04-27T18:11:26.505Z,7.23
2023-04-27T18:13:58.241Z,7.20
2023-04-27T18:16:25.955Z,7.16
2023-04-27T18:18:52.961Z,7.02
2023-04-27T18:21:20.000Z,7.09
2023-04-27T18:23:47.122Z,7.06
2023-04-27T18:26:14.234Z,7.15
2023-04-27T18:28:41.944Z,7.17
2023-04-27T18:31:16.436Z,7.21
2023-04-27T18:33:47.205Z,7.13
2023-04-27T18:36:14.373Z,7.08
2023-04-27T18:38:41.382Z,7.11
2023-04-27T18:41:08.601Z,7.02
2023-04-27T18:43:37.016Z,6.92
2023-04-27T18:46:04.793Z,6.79
2023-04-27T18:48:32.686Z,6.67
2023-04-27T18:50:59.676Z,6.62
2023-04-27T18:53:27.430Z,6.58
2023-04-27T18:55:54.400Z,6.59
2023-04-27T18:58:21.685Z,6.55
2023-04-27T19:00:48.822Z,6.53
2023-04-27T19:03:16.652Z,6.37
2023-04-27T19:05:44.215Z,6.36
2023-04-27T19:08:11.341Z,6.32
2023-04-27T19:10:41.274Z,6.31
2023-04-27T19:13:08.647Z,6.37
2023-04-27T19:15:35.898Z,6.43
2023-04-27T19:18:10.691Z,6.44
2023-04-27T19:20:38.967Z,6.42
2023-04-27T19:23:06.058Z,6.34
2023-04-27T19:25:33.079Z,6.34
2023-04-27T19:28:00.537Z,6.47
2023-04-27T19:30:27.830Z,6.55
2023-04-27T19:32:54.934Z,6.55
2023-04-27T19:35:23.942Z,6.46
2023-04-27T19:37:51.188Z,6.37
2023-04-27T19:40:18.544Z,6.31
2023-04-27T19:42:45.757Z,6.31
2023-04-27T19:45:13.236Z,6.27
2023-04-27T19:47:40.365Z,6.16
2023-04-27T19:50:07.892Z,6.06
2023-04-27T19:52:34.920Z,6.01
2023-04-27T19:55:01.948Z,5.92
2023-04-27T19:57:29.078Z,5.96
2023-04-27T19:59:56.455Z,5.89
2023-04-27T20:02:23.547Z,5.92
2023-04-27T20:04:51.027Z,6.12
2023-04-27T20:07:18.279Z,6.05
2023-04-27T20:09:45.320Z,5.94
2023-04-27T20:12:28.822Z,5.89
2023-04-27T20:14:59.372Z,5.82
2023-04-27T20:17:26.561Z,5.81
2023-04-27T20:19:57.249Z,5.78
2023-04-27T20:22:24.299Z,5.72
2023-04-27T20:24:51.434Z,5.67
2023-04-27T20:27:18.627Z,5.67
2023-04-27T20:29:47.420Z,5.72
2023-04-27T20:32:14.442Z,5.69
2023-04-27T20:34:41.540Z,5.64
2023-04-27T20:37:09.697Z,5.59
2023-04-27T20:39:36.973Z,5.61
2023-04-27T20:42:04.019Z,5.63
2023-04-27T20:44:32.498Z,5.65
2023-04-27T20:46:59.581Z,5.72
2023-04-27T20:49:34.527Z,5.85
2023-04-27T20:52:03.137Z,5.80
2023-04-27T20:54:33.088Z,5.80
2023-04-27T20:57:03.869Z,5.83
2023-04-27T20:59:31.092Z,5.83
2023-04-27T21:01:58.081Z,5.91
2023-04-27T21:04:25.240Z,5.98
2023-04-27T21:06:52.935Z,6.09
2023-04-27T21:09:20.014Z,6.15
2023-04-27T21:11:47.050Z,6.01
2023-04-27T21:14:14.252Z,6.01
2023-04-27T21:16:41.545Z,5.85
2023-04-27T21:19:14.794Z,5.68
2023-04-27T21:21:41.896Z,5.58
2023-04-27T21:24:09.043Z,5.54
2023-04-27T21:26:36.082Z,5.44
2023-04-27T21:29:05.895Z,5.35
2023-04-27T21:31:34.029Z,5.26
2023-04-27T21:34:02.117Z,5.11
2023-04-27T21:36:29.426Z,4.99
2023-04-27T21:38:56.446Z,4.94
2023-04-27T21:41:24.280Z,4.86
2023-04-27T21:43:51.345Z,4.83
2023-04-27T21:46:18.440Z,4.73
2023-04-27T21:48:45.550Z,4.68
2023-04-27T21:51:12.606Z,4.59
2023-04-27T21:53:39.583Z,4.56
2023-04-27T21:56:06.928Z,4.52
2023-04-27T21:58:33.884Z,4.52
2023-04-27T22:01:01.342Z,4.66
2023-04-27T22:03:29.060Z,4.73
2023-04-27T22:05:57.764Z,4.75
2023-04-27T22:08:24.938Z,4.83
2023-04-27T22:10:52.096Z,4.77
2023-04-27T22:13:19.743Z,4.70
2023-04-27T22:15:47.678Z,4.59
2023-04-27T22:18:15.679Z,4.50
2023-04-27T22:20:43.191Z,4.45
2023-04-27T22:23:10.912Z,4.41
2023-04-27T22:25:37.871Z,4.39
2023-04-27T22:28:05.020Z,4.38
2023-04-27T22:30:31.999Z,4.39
2023-04-27T22:32:59.283Z,4.43
2023-04-27T22:35:27.816Z,4.32
2023-04-27T22:37:55.991Z,4.30
2023-04-27T22:40:23.311Z,4.18
2023-04-27T22:42:50.826Z,4.11
2023-04-27T22:45:17.834Z,4.27
2023-04-27T22:47:46.116Z,4.39
2023-04-27T22:50:13.865Z,4.52
2023-04-27T22:52:44.427Z,4.63
2023-04-27T22:55:12.800Z,4.72
2023-04-27T22:57:41.596Z,4.71
2023-04-27T23:00:11.259Z,4.65
2023-04-27T23:02:41.872Z,4.60
2023-04-27T23:05:10.941Z,4.57
2023-04-27T23:07:38.947Z,4.54
2023-04-27T23:10:06.456Z,4.56
2023-04-27T23:12:33.666Z,4.48
2023-04-27T23:15:00.708Z,4.44
2023-04-27T23:17:30.833Z,4.44
2023-04-27T23:19:59.492Z,4.44
2023-04-27T23:22:27.369Z,4.44
2023-04-27T23:24:54.695Z,4.35
2023-04-27T23:27:22.770Z,4.35
2023-04-27T23:29:49.763Z,4.29
2023-04-27T23:32:17.280Z,4.20
2023-04-27T23:34:44.345Z,4.19
2023-04-27T23:37:11.389Z,4.13
2023-04-27T23:39:38.445Z,4.11
2023-04-27T23:42:05.570Z,4.12
2023-04-27T23:44:32.708Z,4.10
2023-04-27T23:46:59.722Z,4.12
2023-04-27T23:49:26.696Z,4.09
2023-04-27T23:51:53.758Z,4.02
2023-04-27T23:54:20.708Z,3.90
2023-04-27T23:56:47.721Z,3.85
2023-04-27T23:59:15.341Z,3.85
